sensor_id;sensor_type;location;lat;lon;timestamp;pressure;altitude;pressure_sealevel;temperature;humidity
15263;BME280;7733;51.554;13.590;2022-08-01T00:00:22;100155.72;;;24.27;55.99
15263;BME280;7733;51.554;13.590;2022-08-01T00:02:47;100154.06;;;24.13;56.23
15263;BME280;7733;51.554;13.590;2022-08-01T00:05:13;100153.06;;;24.14;56.39
15263;BME280;7733;51.554;13.590;2022-08-01T00:07:39;100154.28;;;24.10;56.45
15263;BME280;7733;51.554;13.590;2022-08-01T00:10:08;100158.41;;;24.03;56.73
15263;BME280;7733;51.554;13.590;2022-08-01T00:12:35;100154.28;;;24.10;56.53
15263;BME280;7733;51.554;13.590;2022-08-01T00:15:02;100151.28;;;24.02;56.66
15263;BME280;7733;51.554;13.590;2022-08-01T00:17:27;100154.16;;;23.88;57.18
15263;BME280;7733;51.554;13.590;2022-08-01T00:19:53;100146.47;;;24.07;56.46
15263;BME280;7733;51.554;13.590;2022-08-01T00:22:19;100150.06;;;24.19;55.82
15263;BME280;7733;51.554;13.590;2022-08-01T00:24:44;100145.41;;;23.73;57.66
15263;BME280;7733;51.554;13.590;2022-08-01T00:27:10;100142.25;;;23.79;57.43
15263;BME280;7733;51.554;13.590;2022-08-01T00:29:35;100146.59;;;24.06;56.62
15263;BME280;7733;51.554;13.590;2022-08-01T00:32:01;100139.94;;;23.75;57.73
15263;BME280;7733;51.554;13.590;2022-08-01T00:34:27;100137.13;;;23.76;57.65
15263;BME280;7733;51.554;13.590;2022-08-01T00:36:52;100143.94;;;23.44;58.76
15263;BME280;7733;51.554;13.590;2022-08-01T00:39:18;100133.97;;;23.46;58.78
15263;BME280;7733;51.554;13.590;2022-08-01T00:41:44;100145.44;;;23.35;59.30
15263;BME280;7733;51.554;13.590;2022-08-01T00:44:09;100142.22;;;23.43;58.84
15263;BME280;7733;51.554;13.590;2022-08-01T00:46:35;100140.06;;;23.22;59.39
15263;BME280;7733;51.554;13.590;2022-08-01T00:49:01;100144.50;;;23.23;59.39
15263;BME280;7733;51.554;13.590;2022-08-01T00:51:27;100147.25;;;23.22;59.76
15263;BME280;7733;51.554;13.590;2022-08-01T00:53:54;100134.94;;;23.32;59.15
15263;BME280;7733;51.554;13.590;2022-08-01T00:56:21;100144.34;;;23.37;59.04
15263;BME280;7733;51.554;13.590;2022-08-01T00:58:49;100134.50;;;23.51;58.80
15263;BME280;7733;51.554;13.590;2022-08-01T01:01:14;100143.50;;;23.37;59.28
15263;BME280;7733;51.554;13.590;2022-08-01T01:03:40;100144.56;;;23.34;59.75
15263;BME280;7733;51.554;13.590;2022-08-01T01:06:41;100140.06;;;23.48;59.13
15263;BME280;7733;51.554;13.590;2022-08-01T01:12:44;100129.09;;;22.49;63.69
15263;BME280;7733;51.554;13.590;2022-08-01T01:15:18;100134.41;;;22.89;62.55
15263;BME280;7733;51.554;13.590;2022-08-01T01:18:00;100139.00;;;22.99;62.15
15263;BME280;7733;51.554;13.590;2022-08-01T01:20:33;100134.19;;;23.17;61.19
15263;BME280;7733;51.554;13.590;2022-08-01T01:23:40;100129.59;;;23.19;60.97
15263;BME280;7733;51.554;13.590;2022-08-01T01:26:40;100131.94;;;23.36;60.49
15263;BME280;7733;51.554;13.590;2022-08-01T01:32:06;100131.53;;;23.43;60.41
15263;BME280;7733;51.554;13.590;2022-08-01T01:34:37;100133.13;;;23.32;60.71
15263;BME280;7733;51.554;13.590;2022-08-01T01:37:09;100133.88;;;23.22;61.46
15263;BME280;7733;51.554;13.590;2022-08-01T01:39:38;100129.28;;;23.24;61.30
15263;BME280;7733;51.554;13.590;2022-08-01T01:42:06;100138.38;;;23.21;61.42
15263;BME280;7733;51.554;13.590;2022-08-01T01:44:34;100138.03;;;23.00;62.50
15263;BME280;7733;51.554;13.590;2022-08-01T01:47:02;100140.09;;;23.10;62.14
15263;BME280;7733;51.554;13.590;2022-08-01T01:49:31;100139.22;;;22.96;62.59
15263;BME280;7733;51.554;13.590;2022-08-01T01:52:00;100136.03;;;23.17;61.84
15263;BME280;7733;51.554;13.590;2022-08-01T01:54:33;100136.47;;;23.11;62.29
15263;BME280;7733;51.554;13.590;2022-08-01T01:57:03;100133.44;;;23.15;62.17
15263;BME280;7733;51.554;13.590;2022-08-01T01:59:33;100137.09;;;23.14;62.03
15263;BME280;7733;51.554;13.590;2022-08-01T02:02:03;100132.59;;;23.15;62.28
15263;BME280;7733;51.554;13.590;2022-08-01T02:04:30;100130.78;;;23.28;62.04
15263;BME280;7733;51.554;13.590;2022-08-01T02:06:58;100133.25;;;23.05;63.15
15263;BME280;7733;51.554;13.590;2022-08-01T02:09:27;100134.84;;;23.08;62.79
15263;BME280;7733;51.554;13.590;2022-08-01T02:11:57;100131.94;;;23.36;61.57
15263;BME280;7733;51.554;13.590;2022-08-01T02:14:25;100139.97;;;23.49;60.91
15263;BME280;7733;51.554;13.590;2022-08-01T02:16:57;100138.78;;;23.41;61.32
15263;BME280;7733;51.554;13.590;2022-08-01T02:19:23;100137.69;;;23.56;60.66
15263;BME280;7733;51.554;13.590;2022-08-01T02:22:00;100135.78;;;23.58;60.77
15263;BME280;7733;51.554;13.590;2022-08-01T02:24:41;100140.22;;;23.08;62.73
15263;BME280;7733;51.554;13.590;2022-08-01T02:27:15;100128.75;;;22.93;64.00
15263;BME280;7733;51.554;13.590;2022-08-01T02:30:05;100139.81;;;22.74;64.94
15263;BME280;7733;51.554;13.590;2022-08-01T02:32:39;100140.56;;;22.64;65.45
15263;BME280;7733;51.554;13.590;2022-08-01T02:35:13;100145.66;;;22.94;64.52
15263;BME280;7733;51.554;13.590;2022-08-01T02:37:43;100140.44;;;23.05;64.04
15263;BME280;7733;51.554;13.590;2022-08-01T02:40:11;100138.59;;;23.18;63.26
15263;BME280;7733;51.554;13.590;2022-08-01T02:42:43;100139.03;;;23.12;63.93
15263;BME280;7733;51.554;13.590;2022-08-01T02:45:12;100138.28;;;23.23;63.55
15263;BME280;7733;51.554;13.590;2022-08-01T02:47:41;100135.72;;;23.09;64.09
15263;BME280;7733;51.554;13.590;2022-08-01T02:50:12;100133.38;;;23.04;64.23
15263;BME280;7733;51.554;13.590;2022-08-01T02:52:41;100136.97;;;23.16;64.08
15263;BME280;7733;51.554;13.590;2022-08-01T02:55:10;100133.66;;;22.87;65.15
15263;BME280;7733;51.554;13.590;2022-08-01T02:57:38;100138.06;;;22.61;66.65
15263;BME280;7733;51.554;13.590;2022-08-01T03:00:06;100140.44;;;23.05;64.21
15263;BME280;7733;51.554;13.590;2022-08-01T03:02:33;100144.25;;;23.01;64.31
15263;BME280;7733;51.554;13.590;2022-08-01T03:05:02;100133.88;;;22.84;65.39
15263;BME280;7733;51.554;13.590;2022-08-01T03:07:29;100146.19;;;22.86;64.90
15263;BME280;7733;51.554;13.590;2022-08-01T03:09:57;100144.84;;;22.79;65.46
15263;BME280;7733;51.554;13.590;2022-08-01T03:12:27;100139.50;;;22.79;65.28
15263;BME280;7733;51.554;13.590;2022-08-01T03:14:57;100148.31;;;22.94;65.06
15263;BME280;7733;51.554;13.590;2022-08-01T03:17:28;100146.88;;;22.75;65.76
15263;BME280;7733;51.554;13.590;2022-08-01T03:19:56;100150.47;;;22.49;66.96
15263;BME280;7733;51.554;13.590;2022-08-01T03:22:25;100148.22;;;22.56;66.70
15263;BME280;7733;51.554;13.590;2022-08-01T03:24:54;100152.88;;;22.27;68.21
15263;BME280;7733;51.554;13.590;2022-08-01T03:27:23;100153.09;;;22.63;66.41
15263;BME280;7733;51.554;13.590;2022-08-01T03:29:51;100154.75;;;22.52;66.91
15263;BME280;7733;51.554;13.590;2022-08-01T03:32:19;100155.81;;;22.49;67.04
15263;BME280;7733;51.554;13.590;2022-08-01T03:34:46;100144.75;;;22.81;65.61
15263;BME280;7733;51.554;13.590;2022-08-01T03:37:26;100148.38;;;22.80;65.67
15263;BME280;7733;51.554;13.590;2022-08-01T03:40:04;100148.38;;;22.80;65.49
15263;BME280;7733;51.554;13.590;2022-08-01T03:42:40;100146.13;;;22.73;66.25
15263;BME280;7733;51.554;13.590;2022-08-01T03:45:11;100148.66;;;22.62;66.46
15263;BME280;7733;51.554;13.590;2022-08-01T03:47:43;100151.22;;;22.51;67.43
15263;BME280;7733;51.554;13.590;2022-08-01T03:50:13;100146.19;;;22.59;67.44
15263;BME280;7733;51.554;13.590;2022-08-01T03:52:44;100148.16;;;22.70;67.10
15263;BME280;7733;51.554;13.590;2022-08-01T03:55:12;100152.28;;;23.01;65.03
15263;BME280;7733;51.554;13.590;2022-08-01T03:57:40;100155.88;;;22.74;67.13
15263;BME280;7733;51.554;13.590;2022-08-01T04:00:08;100163.78;;;22.76;67.48
15263;BME280;7733;51.554;13.590;2022-08-01T04:02:36;100153.56;;;22.95;66.11
15263;BME280;7733;51.554;13.590;2022-08-01T04:05:03;100161.81;;;22.92;66.41
15263;BME280;7733;51.554;13.590;2022-08-01T04:07:31;100156.16;;;22.84;66.84
15263;BME280;7733;51.554;13.590;2022-08-01T04:09:58;100158.44;;;22.76;67.33
15263;BME280;7733;51.554;13.590;2022-08-01T04:12:24;100157.97;;;22.84;67.47
15263;BME280;7733;51.554;13.590;2022-08-01T04:14:50;100148.88;;;22.86;67.47
15263;BME280;7733;51.554;13.590;2022-08-01T04:17:17;100155.19;;;22.58;69.04
15263;BME280;7733;51.554;13.590;2022-08-01T04:19:44;100153.09;;;22.63;68.89
15263;BME280;7733;51.554;13.590;2022-08-01T04:22:13;100165.06;;;22.70;68.54
15263;BME280;7733;51.554;13.590;2022-08-01T04:24:41;100163.56;;;22.79;68.72
15263;BME280;7733;51.554;13.590;2022-08-01T04:27:15;100165.34;;;22.53;69.99
15263;BME280;7733;51.554;13.590;2022-08-01T04:29:43;100167.06;;;22.94;67.83
15263;BME280;7733;51.554;13.590;2022-08-01T04:32:13;100172.84;;;22.88;68.05
15263;BME280;7733;51.554;13.590;2022-08-01T04:34:44;100174.97;;;22.83;68.34
15263;BME280;7733;51.554;13.590;2022-08-01T04:37:12;100179.25;;;22.85;68.77
15263;BME280;7733;51.554;13.590;2022-08-01T04:39:42;100175.00;;;22.81;68.69
15263;BME280;7733;51.554;13.590;2022-08-01T04:42:10;100182.94;;;22.70;69.45
15263;BME280;7733;51.554;13.590;2022-08-01T04:44:37;100179.34;;;22.44;71.18
15263;BME280;7733;51.554;13.590;2022-08-01T04:47:03;100181.50;;;22.25;72.27
15263;BME280;7733;51.554;13.590;2022-08-01T04:49:37;100186.53;;;22.29;72.62
15263;BME280;7733;51.554;13.590;2022-08-01T04:52:03;100188.22;;;22.03;74.67
15263;BME280;7733;51.554;13.590;2022-08-01T04:54:31;100192.25;;;21.82;76.68
15263;BME280;7733;51.554;13.590;2022-08-01T04:57:04;100193.59;;;21.89;76.32
15263;BME280;7733;51.554;13.590;2022-08-01T04:59:32;100189.44;;;21.98;76.62
15263;BME280;7733;51.554;13.590;2022-08-01T05:02:18;100196.50;;;22.13;76.17
15263;BME280;7733;51.554;13.590;2022-08-01T05:04:45;100195.66;;;21.98;77.46
15263;BME280;7733;51.554;13.590;2022-08-01T05:07:12;100191.63;;;22.20;76.39
15263;BME280;7733;51.554;13.590;2022-08-01T05:09:41;100194.16;;;22.08;77.22
15263;BME280;7733;51.554;13.590;2022-08-01T05:12:08;100199.63;;;22.20;76.79
15263;BME280;7733;51.554;13.590;2022-08-01T05:14:34;100201.25;;;22.22;77.19
15263;BME280;7733;51.554;13.590;2022-08-01T05:17:04;100203.66;;;21.98;78.66
15263;BME280;7733;51.554;13.590;2022-08-01T05:19:30;100187.50;;;21.73;79.79
15263;BME280;7733;51.554;13.590;2022-08-01T05:22:01;100200.34;;;21.95;79.37
15263;BME280;7733;51.554;13.590;2022-08-01T05:24:27;100195.84;;;21.95;79.46
15263;BME280;7733;51.554;13.590;2022-08-01T05:26:57;100191.25;;;21.97;80.25
15263;BME280;7733;51.554;13.590;2022-08-01T05:29:23;100203.72;;;21.70;82.69
15263;BME280;7733;51.554;13.590;2022-08-01T05:31:50;100198.72;;;21.92;81.32
15263;BME280;7733;51.554;13.590;2022-08-01T05:34:17;100201.66;;;22.02;81.52
15263;BME280;7733;51.554;13.590;2022-08-01T05:36:43;100203.31;;;21.90;82.32
15263;BME280;7733;51.554;13.590;2022-08-01T05:39:08;100198.81;;;21.91;83.40
15263;BME280;7733;51.554;13.590;2022-08-01T05:41:36;100193.53;;;22.17;81.26
15263;BME280;7733;51.554;13.590;2022-08-01T05:44:03;100203.69;;;22.12;81.93
15263;BME280;7733;51.554;13.590;2022-08-01T05:46:29;100205.91;;;22.06;82.92
15263;BME280;7733;51.554;13.590;2022-08-01T05:49:00;100199.84;;;22.16;82.18
15263;BME280;7733;51.554;13.590;2022-08-01T05:51:26;100203.97;;;22.08;83.81
15263;BME280;7733;51.554;13.590;2022-08-01T05:53:53;100199.38;;;22.10;83.60
15263;BME280;7733;51.554;13.590;2022-08-01T05:56:20;100196.25;;;21.75;86.57
15263;BME280;7733;51.554;13.590;2022-08-01T05:58:46;100204.84;;;21.80;86.90
15263;BME280;7733;51.554;13.590;2022-08-01T06:01:12;100205.31;;;21.86;87.17
15263;BME280;7733;51.554;13.590;2022-08-01T06:03:38;100202.91;;;21.82;87.29
15263;BME280;7733;51.554;13.590;2022-08-01T06:06:04;100202.44;;;22.04;86.49
15263;BME280;7733;51.554;13.590;2022-08-01T06:08:30;100198.69;;;22.21;86.06
15263;BME280;7733;51.554;13.590;2022-08-01T06:10:56;100208.34;;;22.23;85.92
15263;BME280;7733;51.554;13.590;2022-08-01T06:13:22;100204.19;;;22.32;85.49
15263;BME280;7733;51.554;13.590;2022-08-01T06:15:48;100215.97;;;22.15;86.73
15263;BME280;7733;51.554;13.590;2022-08-01T06:18:14;100218.72;;;22.28;86.12
15263;BME280;7733;51.554;13.590;2022-08-01T06:20:40;100217.22;;;22.24;86.17
15263;BME280;7733;51.554;13.590;2022-08-01T06:23:06;100211.75;;;22.52;84.86
15263;BME280;7733;51.554;13.590;2022-08-01T06:25:32;100212.41;;;22.29;85.63
15263;BME280;7733;51.554;13.590;2022-08-01T06:27:59;100222.78;;;22.06;87.78
15263;BME280;7733;51.554;13.590;2022-08-01T06:30:24;100213.28;;;22.29;86.40
15263;BME280;7733;51.554;13.590;2022-08-01T06:32:50;100216.34;;;22.50;85.00
15263;BME280;7733;51.554;13.590;2022-08-01T06:35:16;100208.22;;;22.25;85.76
15263;BME280;7733;51.554;13.590;2022-08-01T06:37:42;100225.38;;;22.35;85.61
15263;BME280;7733;51.554;13.590;2022-08-01T06:40:10;100227.16;;;22.49;84.43
15263;BME280;7733;51.554;13.590;2022-08-01T06:42:36;100220.19;;;22.46;84.41
15263;BME280;7733;51.554;13.590;2022-08-01T06:45:04;100222.19;;;22.69;83.28
15263;BME280;7733;51.554;13.590;2022-08-01T06:47:30;100236.44;;;22.43;83.46
15263;BME280;7733;51.554;13.590;2022-08-01T06:49:56;100228.72;;;22.78;81.86
15263;BME280;7733;51.554;13.590;2022-08-01T06:52:22;100226.63;;;22.56;83.15
15263;BME280;7733;51.554;13.590;2022-08-01T06:54:48;100222.69;;;22.89;81.46
15263;BME280;7733;51.554;13.590;2022-08-01T06:57:14;100209.03;;;22.79;81.40
15263;BME280;7733;51.554;13.590;2022-08-01T06:59:39;100222.63;;;23.03;80.60
15263;BME280;7733;51.554;13.590;2022-08-01T07:02:05;100225.19;;;23.17;79.90
15263;BME280;7733;51.554;13.590;2022-08-01T07:04:31;100228.09;;;23.27;78.81
15263;BME280;7733;51.554;13.590;2022-08-01T07:06:57;100227.94;;;22.90;80.58
15263;BME280;7733;51.554;13.590;2022-08-01T07:09:24;100224.69;;;23.25;78.76
15263;BME280;7733;51.554;13.590;2022-08-01T07:11:49;100238.84;;;23.00;80.44
15263;BME280;7733;51.554;13.590;2022-08-01T07:14:18;100223.47;;;23.42;78.10
15263;BME280;7733;51.554;13.590;2022-08-01T07:16:44;100217.16;;;23.17;79.21
15263;BME280;7733;51.554;13.590;2022-08-01T07:19:09;100223.78;;;22.99;80.82
15263;BME280;7733;51.554;13.590;2022-08-01T07:21:35;100233.41;;;23.01;80.80
15263;BME280;7733;51.554;13.590;2022-08-01T07:24:01;100240.25;;;22.93;82.05
15263;BME280;7733;51.554;13.590;2022-08-01T07:26:26;100240.03;;;22.96;81.89
15263;BME280;7733;51.554;13.590;2022-08-01T07:28:53;100236.88;;;23.03;82.04
15263;BME280;7733;51.554;13.590;2022-08-01T07:31:19;100235.81;;;23.31;81.06
15263;BME280;7733;51.554;13.590;2022-08-01T07:33:45;100234.94;;;23.05;82.69
15263;BME280;7733;51.554;13.590;2022-08-01T07:36:11;100233.13;;;23.31;81.20
15263;BME280;7733;51.554;13.590;2022-08-01T07:38:37;100237.00;;;23.27;81.02
15263;BME280;7733;51.554;13.590;2022-08-01T07:41:02;100211.91;;;23.03;81.25
15263;BME280;7733;51.554;13.590;2022-08-01T07:43:28;100232.06;;;22.82;83.01
15263;BME280;7733;51.554;13.590;2022-08-01T07:45:54;100233.94;;;22.94;82.36
15263;BME280;7733;51.554;13.590;2022-08-01T07:48:20;100222.06;;;22.98;80.97
15263;BME280;7733;51.554;13.590;2022-08-01T07:50:50;100232.25;;;23.05;81.40
15263;BME280;7733;51.554;13.590;2022-08-01T07:53:16;100240.16;;;22.94;82.17
15263;BME280;7733;51.554;13.590;2022-08-01T07:55:42;100242.84;;;23.07;81.39
15263;BME280;7733;51.554;13.590;2022-08-01T07:58:08;100241.78;;;23.22;79.94
15263;BME280;7733;51.554;13.590;2022-08-01T08:00:33;100227.13;;;23.41;78.31
15263;BME280;7733;51.554;13.590;2022-08-01T08:02:59;100230.34;;;23.33;78.75
15263;BME280;7733;51.554;13.590;2022-08-01T08:05:28;100215.25;;;23.32;78.73
15263;BME280;7733;51.554;13.590;2022-08-01T08:07:53;100221.38;;;23.72;77.65
15263;BME280;7733;51.554;13.590;2022-08-01T08:10:19;100227.78;;;23.44;77.68
15263;BME280;7733;51.554;13.590;2022-08-01T08:12:45;100236.69;;;23.57;77.28
15263;BME280;7733;51.554;13.590;2022-08-01T08:15:12;100239.88;;;23.24;79.07
15263;BME280;7733;51.554;13.590;2022-08-01T08:17:38;100235.59;;;23.34;81.01
15263;BME280;7733;51.554;13.590;2022-08-01T08:20:08;100245.03;;;23.27;81.58
15263;BME280;7733;51.554;13.590;2022-08-01T08:22:34;100242.44;;;23.26;82.36
15263;BME280;7733;51.554;13.590;2022-08-01T08:25:00;100240.84;;;23.36;80.68
15263;BME280;7733;51.554;13.590;2022-08-01T08:27:26;100234.19;;;23.16;81.04
15263;BME280;7733;51.554;13.590;2022-08-01T08:29:51;100243.53;;;23.23;80.69
15263;BME280;7733;51.554;13.590;2022-08-01T08:32:17;100237.09;;;23.38;79.38
15263;BME280;7733;51.554;13.590;2022-08-01T08:34:43;100229.38;;;23.34;79.57
15263;BME280;7733;51.554;13.590;2022-08-01T08:37:10;100236.34;;;23.36;79.04
15263;BME280;7733;51.554;13.590;2022-08-01T08:39:35;100233.69;;;23.62;77.69
15263;BME280;7733;51.554;13.590;2022-08-01T08:42:06;100240.97;;;23.73;76.34
15263;BME280;7733;51.554;13.590;2022-08-01T08:44:32;100241.81;;;23.86;74.76
15263;BME280;7733;51.554;13.590;2022-08-01T08:47:01;100238.94;;;23.76;75.14
15263;BME280;7733;51.554;13.590;2022-08-01T08:49:31;100237.72;;;23.93;74.72
15263;BME280;7733;51.554;13.590;2022-08-01T08:52:01;100246.56;;;23.70;74.58
15263;BME280;7733;51.554;13.590;2022-08-01T08:54:29;100246.97;;;23.76;74.46
15263;BME280;7733;51.554;13.590;2022-08-01T08:56:57;100257.03;;;23.60;74.81
15263;BME280;7733;51.554;13.590;2022-08-01T08:59:23;100254.13;;;23.50;75.23
15263;BME280;7733;51.554;13.590;2022-08-01T09:01:50;100257.16;;;23.71;74.25
15263;BME280;7733;51.554;13.590;2022-08-01T09:04:16;100254.25;;;23.61;75.63
15263;BME280;7733;51.554;13.590;2022-08-01T09:06:42;100253.72;;;23.44;76.45
15263;BME280;7733;51.554;13.590;2022-08-01T09:09:09;100256.06;;;23.74;75.37
15263;BME280;7733;51.554;13.590;2022-08-01T09:11:36;100262.81;;;23.92;74.78
15263;BME280;7733;51.554;13.590;2022-08-01T09:14:12;100256.53;;;24.17;73.34
15263;BME280;7733;51.554;13.590;2022-08-01T09:16:44;100258.41;;;24.40;72.00
15263;BME280;7733;51.554;13.590;2022-08-01T09:19:17;100251.78;;;24.46;71.68
15263;BME280;7733;51.554;13.590;2022-08-01T09:22:00;100249.09;;;24.70;70.58
15263;BME280;7733;51.554;13.590;2022-08-01T09:24:28;100244.03;;;24.89;68.98
15263;BME280;7733;51.554;13.590;2022-08-01T09:26:54;100255.19;;;24.72;68.23
15263;BME280;7733;51.554;13.590;2022-08-01T09:29:25;100261.66;;;24.45;69.20
15263;BME280;7733;51.554;13.590;2022-08-01T09:31:51;100256.31;;;24.20;70.31
15263;BME280;7733;51.554;13.590;2022-08-01T09:34:28;100263.50;;;24.32;70.15
15263;BME280;7733;51.554;13.590;2022-08-01T09:37:01;100256.28;;;24.45;69.99
15263;BME280;7733;51.554;13.590;2022-08-01T09:39:33;100264.84;;;24.50;67.94
15263;BME280;7733;51.554;13.590;2022-08-01T09:42:25;100273.25;;;24.33;68.04
15263;BME280;7733;51.554;13.590;2022-08-01T09:44:52;100291.38;;;24.17;69.11
15263;BME280;7733;51.554;13.590;2022-08-01T09:47:19;100307.56;;;23.26;84.94
15263;BME280;7733;51.554;13.590;2022-08-01T09:49:54;100318.81;;;21.65;100.00
15263;BME280;7733;51.554;13.590;2022-08-01T09:52:24;100336.91;;;21.46;100.00
15263;BME280;7733;51.554;13.590;2022-08-01T09:55:05;100330.22;;;21.23;100.00
15263;BME280;7733;51.554;13.590;2022-08-01T09:57:31;100352.66;;;21.19;100.00
15263;BME280;7733;51.554;13.590;2022-08-01T10:00:00;100344.84;;;20.70;100.00
15263;BME280;7733;51.554;13.590;2022-08-01T10:02:39;100347.84;;;20.64;100.00
15263;BME280;7733;51.554;13.590;2022-08-01T10:05:09;100354.38;;;20.58;100.00
15263;BME280;7733;51.554;13.590;2022-08-01T10:07:55;100354.28;;;20.60;100.00
15263;BME280;7733;51.554;13.590;2022-08-01T10:10:21;100354.56;;;20.71;100.00
15263;BME280;7733;51.554;13.590;2022-08-01T10:12:48;100368.31;;;20.48;100.00
15263;BME280;7733;51.554;13.590;2022-08-01T10:15:16;100367.72;;;20.74;100.00
15263;BME280;7733;51.554;13.590;2022-08-01T10:18:03;100369.09;;;20.65;100.00
15263;BME280;7733;51.554;13.590;2022-08-01T10:20:32;100367.78;;;20.88;100.00
15263;BME280;7733;51.554;13.590;2022-08-01T10:23:03;100369.59;;;20.88;100.00
15263;BME280;7733;51.554;13.590;2022-08-01T10:25:35;100368.47;;;21.08;100.00
15263;BME280;7733;51.554;13.590;2022-08-01T10:28:13;100363.22;;;21.06;100.00
15263;BME280;7733;51.554;13.590;2022-08-01T10:30:42;100358.19;;;21.16;100.00
15263;BME280;7733;51.554;13.590;2022-08-01T10:33:10;100354.19;;;21.24;100.00
15263;BME280;7733;51.554;13.590;2022-08-01T10:35:40;100353.13;;;21.27;100.00
15263;BME280;7733;51.554;13.590;2022-08-01T10:38:07;100351.38;;;21.56;100.00
15263;BME280;7733;51.554;13.590;2022-08-01T10:40:33;100353.25;;;21.98;100.00
15263;BME280;7733;51.554;13.590;2022-08-01T10:42:59;100359.91;;;21.77;100.00
15263;BME280;7733;51.554;13.590;2022-08-01T10:45:25;100355.50;;;22.06;100.00
15263;BME280;7733;51.554;13.590;2022-08-01T10:48:12;100360.69;;;21.93;100.00
15263;BME280;7733;51.554;13.590;2022-08-01T10:50:47;100352.94;;;22.04;100.00
15263;BME280;7733;51.554;13.590;2022-08-01T10:53:20;100351.53;;;22.54;100.00
15263;BME280;7733;51.554;13.590;2022-08-01T10:58:34;100342.94;;;22.63;100.00
15263;BME280;7733;51.554;13.590;2022-08-01T11:01:30;100350.44;;;22.85;100.00
15263;BME280;7733;51.554;13.590;2022-08-01T11:04:06;100345.84;;;22.87;100.00
15263;BME280;7733;51.554;13.590;2022-08-01T11:09:02;100344.06;;;23.00;100.00
15263;BME280;7733;51.554;13.590;2022-08-01T11:11:28;100340.44;;;23.41;99.06
15263;BME280;7733;51.554;13.590;2022-08-01T11:14:03;100342.75;;;23.60;98.92
15263;BME280;7733;51.554;13.590;2022-08-01T11:16:35;100336.34;;;23.75;95.94
15263;BME280;7733;51.554;13.590;2022-08-01T11:19:04;100343.38;;;24.02;94.79
15263;BME280;7733;51.554;13.590;2022-08-01T11:27:21;100331.50;;;24.31;88.86
15263;BME280;7733;51.554;13.590;2022-08-01T11:32:57;100340.19;;;24.35;87.61
15263;BME280;7733;51.554;13.590;2022-08-01T11:35:24;100333.59;;;24.51;89.45
15263;BME280;7733;51.554;13.590;2022-08-01T11:37:55;100332.63;;;24.52;87.55
15263;BME280;7733;51.554;13.590;2022-08-01T11:40:27;100337.09;;;24.65;86.90
15263;BME280;7733;51.554;13.590;2022-08-01T11:45:55;100330.09;;;25.23;85.12
15263;BME280;7733;51.554;13.590;2022-08-01T11:48:26;100331.06;;;25.22;83.14
15263;BME280;7733;51.554;13.590;2022-08-01T11:50:54;100326.41;;;25.12;83.11
15263;BME280;7733;51.554;13.590;2022-08-01T11:53:21;100324.53;;;25.37;83.72
15263;BME280;7733;51.554;13.590;2022-08-01T11:55:52;100331.28;;;24.95;82.73
15263;BME280;7733;51.554;13.590;2022-08-01T11:58:24;100329.22;;;24.74;82.02
15263;BME280;7733;51.554;13.590;2022-08-01T12:00:52;100334.84;;;24.58;83.54
15263;BME280;7733;51.554;13.590;2022-08-01T12:03:28;100334.44;;;24.65;83.26
15263;BME280;7733;51.554;13.590;2022-08-01T12:05:56;100337.91;;;24.41;83.06
15263;BME280;7733;51.554;13.590;2022-08-01T12:08:31;100340.09;;;24.60;83.17
15263;BME280;7733;51.554;13.590;2022-08-01T12:11:04;100342.16;;;24.56;83.06
15263;BME280;7733;51.554;13.590;2022-08-01T12:13:43;100343.19;;;24.30;83.30
15263;BME280;7733;51.554;13.590;2022-08-01T12:16:11;100351.13;;;24.44;83.45
15263;BME280;7733;51.554;13.590;2022-08-01T12:18:44;100327.84;;;24.69;81.60
15263;BME280;7733;51.554;13.590;2022-08-01T12:21:10;100348.53;;;24.43;82.57
15263;BME280;7733;51.554;13.590;2022-08-01T12:23:35;100342.72;;;24.85;81.98
15263;BME280;7733;51.554;13.590;2022-08-01T12:26:01;100343.91;;;25.29;79.78
15263;BME280;7733;51.554;13.590;2022-08-01T12:28:27;100339.72;;;25.49;79.50
15263;BME280;7733;51.554;13.590;2022-08-01T12:30:52;100341.78;;;25.57;79.27
15263;BME280;7733;51.554;13.590;2022-08-01T12:33:20;100331.75;;;24.65;80.74
15263;BME280;7733;51.554;13.590;2022-08-01T12:35:47;100348.75;;;24.76;80.47
15263;BME280;7733;51.554;13.590;2022-08-01T12:38:20;100354.03;;;25.26;78.65
15263;BME280;7733;51.554;13.590;2022-08-01T12:40:48;100350.00;;;25.66;77.02
15263;BME280;7733;51.554;13.590;2022-08-01T12:43:19;100346.47;;;25.66;76.03
15263;BME280;7733;51.554;13.590;2022-08-01T12:45:48;100351.44;;;25.59;75.79
15263;BME280;7733;51.554;13.590;2022-08-01T12:48:17;100353.81;;;25.29;76.03
15263;BME280;7733;51.554;13.590;2022-08-01T12:50:47;100353.19;;;25.01;75.55
15263;BME280;7733;51.554;13.590;2022-08-01T12:53:14;100357.97;;;25.33;75.66
15263;BME280;7733;51.554;13.590;2022-08-01T12:55:58;100351.16;;;24.92;76.00
15263;BME280;7733;51.554;13.590;2022-08-01T12:58:31;100362.34;;;25.34;75.58
15263;BME280;7733;51.554;13.590;2022-08-01T13:01:08;100358.41;;;25.51;74.92
15263;BME280;7733;51.554;13.590;2022-08-01T13:03:34;100354.47;;;25.20;74.10
15263;BME280;7733;51.554;13.590;2022-08-01T13:06:01;100347.81;;;25.25;73.61
15263;BME280;7733;51.554;13.590;2022-08-01T13:08:34;100342.19;;;25.63;72.64
15263;BME280;7733;51.554;13.590;2022-08-01T13:11:09;100343.34;;;25.72;73.46
15263;BME280;7733;51.554;13.590;2022-08-01T13:13:42;100341.06;;;26.34;71.08
15263;BME280;7733;51.554;13.590;2022-08-01T13:16:09;100338.59;;;25.98;70.88
15263;BME280;7733;51.554;13.590;2022-08-01T13:18:36;100335.31;;;25.59;71.05
15263;BME280;7733;51.554;13.590;2022-08-01T13:21:20;100343.06;;;25.64;72.31
15263;BME280;7733;51.554;13.590;2022-08-01T13:24:12;100344.88;;;25.63;71.51